createdAt,value
2022-11-30T00:02:30.799Z,32.35
2022-11-30T00:07:32.348Z,35.50
2022-11-30T00:12:34.209Z,39.35
2022-11-30T00:17:35.551Z,43.28
2022-11-30T00:22:36.920Z,34.03
2022-11-30T00:27:38.301Z,32.15
2022-11-30T00:32:39.661Z,31.15
2022-11-30T00:37:40.994Z,39.78
2022-11-30T00:42:42.361Z,32.95
2022-11-30T00:47:43.722Z,33.22
2022-11-30T00:52:45.075Z,47.78
2022-11-30T00:57:46.408Z,35.97
2022-11-30T01:02:47.813Z,43.58
2022-11-30T01:07:49.246Z,29.33
2022-11-30T01:12:50.697Z,35.42
2022-11-30T01:17:52.112Z,42.85
2022-11-30T01:22:55.291Z,31.70
2022-11-30T01:27:56.671Z,36.90
2022-11-30T01:33:05.568Z,38.15
2022-11-30T01:38:06.937Z,40.03
2022-11-30T01:43:11.844Z,45.28
2022-11-30T01:48:13.452Z,32.40
2022-11-30T01:53:15.004Z,41.10
2022-11-30T01:58:22.917Z,33.45
2022-11-30T02:03:38.829Z,32.55
2022-11-30T02:08:40.271Z,31.95
2022-11-30T02:13:52.253Z,30.67
2022-11-30T02:19:14.548Z,31.85
2022-11-30T02:24:27.814Z,29.17
2022-11-30T02:29:33.514Z,36.45
2022-11-30T02:34:37.052Z,36.72
2022-11-30T02:39:38.438Z,42.97
2022-11-30T02:44:42.718Z,34.88
2022-11-30T02:49:56.910Z,40.38
2022-11-30T02:55:01.010Z,42.85
2022-11-30T03:00:07.413Z,43.70
2022-11-30T03:05:09.646Z,38.70
2022-11-30T03:10:11.212Z,35.33
2022-11-30T03:15:12.577Z,32.45
2022-11-30T03:20:14.056Z,37.83
2022-11-30T03:25:15.497Z,44.45
2022-11-30T03:30:17.203Z,40.35
2022-11-30T03:35:19.227Z,33.92
2022-11-30T03:40:20.592Z,46.38
2022-11-30T03:45:22.026Z,41.63
2022-11-30T03:50:23.354Z,43.22
2022-11-30T03:55:24.693Z,49.25
2022-11-30T04:00:26.120Z,44.63
2022-11-30T04:05:29.030Z,41.78
2022-11-30T04:10:30.466Z,42.33
2022-11-30T04:15:31.844Z,46.60
2022-11-30T04:20:37.384Z,38.58
2022-11-30T04:25:41.844Z,44.85
2022-11-30T04:30:44.055Z,44.45
2022-11-30T04:35:50.643Z,34.53
2022-11-30T04:40:52.641Z,41.67
2022-11-30T04:45:54.011Z,48.63
2022-11-30T04:51:01.369Z,46.92
2022-11-30T04:56:10.486Z,41.95
2022-11-30T05:01:11.884Z,53.58
2022-11-30T05:06:13.264Z,53.85
2022-11-30T05:11:14.641Z,48.60
2022-11-30T05:16:16.055Z,40.35
2022-11-30T05:21:17.822Z,53.58
2022-11-30T05:26:19.211Z,55.33
2022-11-30T05:31:20.677Z,41.80
2022-11-30T05:36:22.391Z,49.25
2022-11-30T05:41:23.821Z,53.42
2022-11-30T05:46:25.258Z,49.88
2022-11-30T05:51:26.667Z,46.35
2022-11-30T05:56:28.098Z,57.20
2022-11-30T06:01:29.850Z,56.35
2022-11-30T06:06:31.278Z,57.42
2022-11-30T06:11:32.738Z,48.50
2022-11-30T06:16:34.277Z,45.55
2022-11-30T06:21:35.832Z,52.92
2022-11-30T06:26:37.203Z,46.20
2022-11-30T06:31:38.632Z,49.88
2022-11-30T06:36:40.025Z,46.90
2022-11-30T06:41:41.502Z,59.28
2022-11-30T06:46:42.867Z,59.13
2022-11-30T06:51:44.236Z,52.75
2022-11-30T06:56:45.607Z,54.85
2022-11-30T07:01:46.974Z,56.35
2022-11-30T07:06:48.350Z,53.47
2022-11-30T07:11:49.772Z,54.03
2022-11-30T07:16:51.757Z,59.30
2022-11-30T07:21:53.165Z,55.85
2022-11-30T07:26:54.557Z,59.78
2022-11-30T07:31:56.147Z,51.58
2022-11-30T07:36:57.595Z,50.70
2022-11-30T07:41:59.070Z,59.70
2022-11-30T07:47:01.062Z,65.82
2022-11-30T07:52:04.477Z,41.83
2022-11-30T07:57:06.394Z,50.63
2022-11-30T08:02:10.453Z,50.00
2022-11-30T08:07:11.952Z,57.78
2022-11-30T08:12:13.386Z,47.35
2022-11-30T08:17:14.762Z,49.13
2022-11-30T08:22:16.160Z,54.85
2022-11-30T08:27:17.524Z,52.40
2022-11-30T08:32:19.018Z,49.83
2022-11-30T08:37:20.385Z,61.47
2022-11-30T08:42:21.794Z,56.55
2022-11-30T08:47:23.201Z,50.75
2022-11-30T08:52:24.900Z,59.92
2022-11-30T08:57:26.828Z,55.13
2022-11-30T09:02:28.256Z,61.40
2022-11-30T09:07:29.791Z,58.33
2022-11-30T09:12:34.727Z,51.60
2022-11-30T09:17:36.627Z,53.95
2022-11-30T09:22:37.991Z,58.65
2022-11-30T09:27:39.364Z,57.20
2022-11-30T09:32:40.770Z,56.25
2022-11-30T09:37:42.206Z,55.75
2022-11-30T09:42:54.423Z,52.80
2022-11-30T09:48:24.402Z,50.70
2022-11-30T09:53:37.518Z,52.78
2022-11-30T09:58:47.476Z,53.28
2022-11-30T10:03:49.287Z,51.97
2022-11-30T10:09:06.594Z,52.78
2022-11-30T10:14:36.542Z,55.55
2022-11-30T10:20:02.078Z,49.70
2022-11-30T10:25:12.445Z,48.85
2022-11-30T10:30:17.829Z,55.17
2022-11-30T10:35:32.865Z,47.88
2022-11-30T10:41:01.477Z,44.65
2022-11-30T10:46:02.942Z,46.85
2022-11-30T10:51:04.608Z,39.78
2022-11-30T10:56:10.134Z,40.58
2022-11-30T11:01:30.302Z,30.10
2022-11-30T11:06:33.294Z,32.40
2022-11-30T11:11:39.386Z,32.85
2022-11-30T11:17:08.906Z,23.52
2022-11-30T11:22:28.141Z,20.15
2022-11-30T11:27:33.078Z,20.05
2022-11-30T11:32:35.337Z,22.70
2022-11-30T11:37:41.035Z,21.75
2022-11-30T11:42:51.524Z,20.88
2022-11-30T11:48:33.600Z,25.65
2022-11-30T11:53:50.133Z,24.45
2022-11-30T11:59:09.762Z,36.33
2022-11-30T12:04:38.976Z,24.67
2022-11-30T12:09:51.540Z,27.60
2022-11-30T12:14:55.124Z,29.02
2022-11-30T12:20:14.795Z,29.73
2022-11-30T12:25:25.302Z,28.40
2022-11-30T12:30:41.722Z,26.33
2022-11-30T12:35:52.080Z,32.92
2022-11-30T12:41:17.879Z,25.33
2022-11-30T12:46:41.023Z,26.13
2022-11-30T12:51:56.932Z,28.17
2022-11-30T12:57:13.732Z,31.05
2022-11-30T13:02:36.909Z,35.60
2022-11-30T13:08:05.505Z,36.92
2022-11-30T13:13:13.437Z,32.72
2022-11-30T13:18:18.007Z,45.60
2022-11-30T13:23:31.810Z,37.97
2022-11-30T13:28:42.413Z,39.13
2022-11-30T13:33:53.015Z,35.45
2022-11-30T13:39:21.756Z,30.88
2022-11-30T13:44:38.279Z,39.63
2022-11-30T13:49:39.819Z,38.00
2022-11-30T13:54:50.296Z,36.58
2022-11-30T13:59:56.912Z,38.25
2022-11-30T14:05:18.632Z,43.75
2022-11-30T14:10:32.212Z,36.75
2022-11-30T14:15:40.581Z,39.40
2022-11-30T14:20:57.368Z,34.38
2022-11-30T14:26:10.948Z,35.45
2022-11-30T14:31:21.065Z,31.20
2022-11-30T14:36:27.223Z,36.08
2022-11-30T14:41:30.663Z,31.80
2022-11-30T14:46:34.978Z,36.90
2022-11-30T14:51:37.665Z,31.45
2022-11-30T14:56:48.836Z,31.73
2022-11-30T15:01:59.028Z,40.90
2022-11-30T15:07:00.672Z,31.67
2022-11-30T15:12:02.121Z,33.47
2022-11-30T15:17:03.661Z,32.73
2022-11-30T15:22:05.062Z,28.85
2022-11-30T15:27:14.053Z,30.23
2022-11-30T15:32:17.704Z,27.35
2022-11-30T15:37:19.375Z,30.02
2022-11-30T15:42:30.022Z,32.20
2022-11-30T15:47:38.629Z,29.98
2022-11-30T15:52:44.608Z,32.28
2022-11-30T15:58:02.042Z,30.92
2022-11-30T16:03:10.860Z,29.42
2022-11-30T16:08:17.894Z,32.70
2022-11-30T16:13:22.334Z,26.02
2022-11-30T16:18:26.382Z,21.85
2022-11-30T16:23:28.827Z,20.90
2022-11-30T16:28:30.191Z,23.77
2022-11-30T16:33:33.313Z,22.75
2022-11-30T16:38:34.678Z,21.90
2022-11-30T16:43:39.827Z,22.27
2022-11-30T16:48:41.861Z,22.80
2022-11-30T16:53:44.511Z,16.15
2022-11-30T16:58:46.086Z,23.15
2022-11-30T17:03:50.802Z,17.42
2022-11-30T17:08:52.421Z,21.65
2022-11-30T17:13:53.909Z,18.75
2022-11-30T17:18:55.567Z,19.85
2022-11-30T17:23:58.155Z,23.70
2022-11-30T17:28:59.747Z,20.10
2022-11-30T17:34:01.462Z,21.25
2022-11-30T17:39:07.057Z,20.25
2022-11-30T17:44:09.834Z,26.55
2022-11-30T17:49:11.199Z,22.63
2022-11-30T17:54:12.734Z,18.27
2022-11-30T17:59:14.173Z,19.77
2022-11-30T18:04:16.059Z,26.63
2022-11-30T18:09:17.457Z,26.30
2022-11-30T18:14:18.793Z,24.77
2022-11-30T18:19:21.841Z,24.60
2022-11-30T18:24:25.597Z,23.27
2022-11-30T18:29:27.475Z,26.42
2022-11-30T18:34:28.985Z,25.13
2022-11-30T18:39:30.343Z,24.52
2022-11-30T18:44:31.671Z,25.88
2022-11-30T18:49:33.062Z,26.70
2022-11-30T18:54:34.500Z,25.25
2022-11-30T18:59:35.855Z,21.20
2022-11-30T19:04:37.308Z,29.48
2022-11-30T19:09:38.681Z,29.73
2022-11-30T19:14:42.712Z,31.67
2022-11-30T19:19:44.125Z,32.85
2022-11-30T19:24:45.574Z,31.13
2022-11-30T19:29:47.138Z,29.40
2022-11-30T19:34:49.469Z,22.08
2022-11-30T19:39:51.078Z,26.48
2022-11-30T19:44:52.459Z,38.22
2022-11-30T19:49:53.786Z,28.98
2022-11-30T19:54:55.113Z,22.33
2022-11-30T19:59:56.474Z,31.30
2022-11-30T20:04:57.804Z,28.27
2022-11-30T20:09:59.191Z,26.17
2022-11-30T20:15:00.549Z,27.23
2022-11-30T20:20:02.151Z,22.40
2022-11-30T20:25:03.799Z,26.67
2022-11-30T20:30:07.620Z,20.52
2022-11-30T20:35:10.275Z,25.50
2022-11-30T20:40:12.077Z,30.75
2022-11-30T20:45:13.463Z,34.13
2022-11-30T20:50:14.859Z,39.42
2022-11-30T20:55:16.197Z,32.55
2022-11-30T21:00:18.253Z,22.73
2022-11-30T21:05:19.589Z,21.08
2022-11-30T21:10:20.961Z,23.05
2022-11-30T21:15:22.308Z,22.75
2022-11-30T21:20:23.682Z,31.08
2022-11-30T21:25:25.021Z,19.65
2022-11-30T21:30:26.363Z,21.20
2022-11-30T21:35:27.756Z,21.83
2022-11-30T21:40:29.143Z,21.27
2022-11-30T21:45:30.481Z,18.23
2022-11-30T21:50:31.843Z,20.27
2022-11-30T21:55:33.718Z,18.52
2022-11-30T22:00:35.134Z,16.73
2022-11-30T22:05:36.474Z,15.85
2022-11-30T22:10:37.841Z,23.40
2022-11-30T22:15:39.219Z,42.97
2022-11-30T22:20:40.695Z,33.80
2022-11-30T22:25:42.297Z,25.52
2022-11-30T22:30:44.514Z,17.30
2022-11-30T22:35:45.933Z,16.55
2022-11-30T22:40:47.253Z,20.90
2022-11-30T22:45:48.606Z,22.30
2022-11-30T22:50:49.943Z,20.13
2022-11-30T22:55:51.381Z,19.08
2022-11-30T23:00:52.800Z,17.45
2022-11-30T23:05:54.589Z,23.98
2022-11-30T23:11:05.077Z,21.70
2022-11-30T23:16:07.287Z,25.77
2022-11-30T23:21:33.665Z,26.92
2022-11-30T23:26:39.350Z,24.42
2022-11-30T23:31:42.679Z,27.80
2022-11-30T23:36:44.637Z,27.20
2022-11-30T23:41:46.280Z,30.15
2022-11-30T23:46:48.022Z,26.67
2022-11-30T23:51:49.491Z,26.33
2022-11-30T23:56:51.360Z,23.85
